Time;durP1;ratioP1;P1;durP2;ratioP2;P2;SDS_P1;SDS_P2;PMS_P1;PMS_P2;Temp;Humidity;BMP_temperature;BMP_pressure;BME280_temperature;BME280_humidity;BME280_pressure;Samples;Min_cycle;Max_cycle;Signal;HPM_P1;HPM_P2
2023/01/19 00:00:23;;;;;;;;;;;2.50;99.90;;;;;;5076322;28;19915;-73
2023/01/19 00:02:49;;;;;;;;;;;2.50;99.90;;;;;;5075461;28;19991;-73
2023/01/19 00:05:15;;;;;;;;;;;2.50;99.90;;;;;;5086475;28;19912;-71
2023/01/19 00:07:40;;;;;;;;;;;2.50;99.90;;;;;;5083226;28;20003;-72
2023/01/19 00:10:06;;;;;;;;;;;2.40;99.90;;;;;;5088892;28;19908;-72
2023/01/19 00:12:32;;;;;;;;;;;2.30;99.90;;;;;;5085455;28;19912;-72
2023/01/19 00:14:57;;;;;;;;;;;2.50;99.90;;;;;;5090125;28;20267;-73
2023/01/19 00:17:23;;;;;;;;;;;2.40;99.90;;;;;;5081993;28;19915;-73
2023/01/19 00:19:48;;;;;;;;;;;2.90;99.90;;;;;;5080596;28;19916;-72
2023/01/19 00:22:14;;;;;;;;;;;2.50;99.90;;;;;;5081067;28;20007;-73
2023/01/19 00:24:39;;;;;;;;;;;2.50;99.90;;;;;;5089635;28;19908;-73
2023/01/19 00:27:04;;;;;;;;;;;2.50;99.90;;;;;;5088817;28;19904;-73
2023/01/19 00:29:32;;;;;;;;;;;2.60;99.90;;;;;;5089785;28;19921;-73
2023/01/19 00:31:58;;;;;;;;;;;3.70;99.90;;;;;;5079908;28;19954;-73
2023/01/19 00:34:24;;;;;;;;;;;3.60;99.90;;;;;;5088928;28;19915;-73
2023/01/19 00:36:49;;;;;;;;;;;2.50;99.90;;;;;;5090033;28;20413;-73
2023/01/19 00:39:15;;;;;;;;;;;2.60;99.90;;;;;;5090201;28;19908;-73
2023/01/19 00:44:24;;;;;;;;;;;2.50;99.90;;;;;;5084818;28;19964;-73
2023/01/19 00:46:49;;;;;;;;;;;2.60;99.90;;;;;;5083296;28;19908;-73
2023/01/19 00:49:15;;;;;;;;;;;2.50;99.90;;;;;;5082185;28;19974;-73
2023/01/19 00:51:40;;;;;;;;;;;4.60;99.90;;;;;;5086350;28;19905;-72
2023/01/19 00:54:09;;;;;;;;;;;2.50;99.90;;;;;;5083210;28;19996;-73
2023/01/19 00:56:34;;;;;;;;;;;2.60;99.90;;;;;;5082976;28;19947;-73
2023/01/19 00:59:00;;;;;;;;;;;2.60;99.90;;;;;;5084589;28;20425;-72
2023/01/19 01:01:26;;;;;;;;;;;2.50;99.90;;;;;;5077862;28;20444;-72
2023/01/19 01:03:52;;;;;;;;;;;2.60;99.90;;;;;;5082493;28;19914;-72
2023/01/19 01:06:18;;;;;;;;;;;3.80;99.90;;;;;;5083191;28;19920;-73
2023/01/19 01:08:43;;;;;;;;;;;2.60;99.90;;;;;;5087707;28;19908;-72
2023/01/19 01:11:09;;;;;;;;;;;2.50;99.90;;;;;;5073161;28;19915;-73
2023/01/19 01:13:34;;;;;;;;;;;2.40;99.90;;;;;;5073091;28;19912;-72
2023/01/19 01:16:00;;;;;;;;;;;2.60;99.90;;;;;;5085427;28;19966;-73
2023/01/19 01:18:25;;;;;;;;;;;2.50;99.90;;;;;;5080744;28;19915;-73
2023/01/19 01:20:51;;;;;;;;;;;2.20;99.90;;;;;;5081834;28;19965;-73
2023/01/19 01:23:21;;;;;;;;;;;2.50;99.90;;;;;;5076898;28;20046;-73
2023/01/19 01:25:47;;;;;;;;;;;2.60;99.90;;;;;;5075167;28;19910;-72
2023/01/19 01:28:12;;;;;;;;;;;2.40;99.90;;;;;;5076963;28;19939;-73
2023/01/19 01:30:39;;;;;;;;;;;2.50;99.90;;;;;;5077021;28;20326;-73
2023/01/19 01:33:08;;;;;;;;;;;2.50;99.90;;;;;;5075699;28;19918;-73
2023/01/19 01:35:33;;;;;;;;;;;2.50;99.90;;;;;;5078677;28;19904;-74
2023/01/19 01:37:59;;;;;;;;;;;2.50;99.90;;;;;;5085088;28;19915;-73
2023/01/19 01:40:26;;;;;;;;;;;2.60;99.90;;;;;;5075611;28;19904;-72
2023/01/19 01:42:51;;;;;;;;;;;2.60;99.90;;;;;;5079636;28;19952;-72
2023/01/19 01:45:33;;;;;;;;;;;2.60;99.90;;;;;;5078164;28;20441;-72
2023/01/19 01:48:17;;;;;;;;;;;2.60;99.90;;;;;;5075284;28;19904;-72
2023/01/19 01:53:33;;;;;;;;;;;2.60;99.90;;;;;;5077692;28;20008;-72
2023/01/19 01:55:58;;;;;;;;;;;2.60;99.90;;;;;;5083913;28;19936;-73
2023/01/19 01:58:24;;;;;;;;;;;2.60;99.90;;;;;;5075481;28;19916;-73
2023/01/19 02:03:34;;;;;;;;;;;2.60;99.90;;;;;;5080715;28;19915;-73
2023/01/19 02:06:02;;;;;;;;;;;2.50;99.90;;;;;;5078079;28;19908;-73
2023/01/19 02:14:02;;;;;;;;;;;2.30;99.90;;;;;;5091729;28;19918;-73
2023/01/19 02:16:28;;;;;;;;;;;2.10;99.90;;;;;;5091763;28;20366;-72
2023/01/19 02:18:54;;;;;;;;;;;2.10;99.90;;;;;;5093534;28;20349;-72
2023/01/19 02:21:25;;;;;;;;;;;2.00;99.90;;;;;;5091812;28;19908;-72
2023/01/19 02:23:59;;;;;;;;;;;1.90;99.90;;;;;;5076080;28;19908;-72
2023/01/19 02:26:30;;;;;;;;;;;1.90;99.90;;;;;;5080080;28;20343;-72
2023/01/19 02:29:00;;;;;;;;;;;1.80;99.90;;;;;;5081261;28;19912;-72
2023/01/19 02:31:26;;;;;;;;;;;1.60;99.90;;;;;;5086259;28;20345;-72
2023/01/19 02:33:53;;;;;;;;;;;1.60;99.90;;;;;;5087715;28;19942;-72
2023/01/19 02:36:20;;;;;;;;;;;1.60;99.90;;;;;;5085558;28;19909;-71
2023/01/19 02:38:47;;;;;;;;;;;1.50;99.90;;;;;;5080532;28;19916;-71
2023/01/19 02:41:15;;;;;;;;;;;1.60;99.90;;;;;;5092020;28;20380;-71
2023/01/19 02:43:41;;;;;;;;;;;1.50;99.90;;;;;;5087807;28;20003;-72
2023/01/19 02:46:07;;;;;;;;;;;1.50;99.90;;;;;;5088532;28;19912;-72
2023/01/19 02:48:34;;;;;;;;;;;1.40;99.90;;;;;;5084961;28;20436;-72
2023/01/19 02:51:03;;;;;;;;;;;1.50;99.90;;;;;;5084127;28;19915;-73
2023/01/19 02:53:31;;;;;;;;;;;1.50;99.90;;;;;;5088099;28;19915;-72
2023/01/19 02:56:06;;;;;;;;;;;1.50;99.90;;;;;;5092667;28;19908;-72
2023/01/19 02:58:41;;;;;;;;;;;1.50;99.90;;;;;;5091318;28;20250;-72
2023/01/19 03:01:13;;;;;;;;;;;1.50;99.90;;;;;;5083559;28;19909;-72
2023/01/19 03:03:49;;;;;;;;;;;1.50;99.90;;;;;;5078209;28;19908;-72
2023/01/19 03:06:24;;;;;;;;;;;1.50;99.90;;;;;;5086150;28;20384;-72
2023/01/19 03:09:01;;;;;;;;;;;3.40;99.90;;;;;;5090525;28;19908;-72
2023/01/19 03:11:29;;;;;;;;;;;1.50;99.90;;;;;;5084094;28;20456;-72
2023/01/19 03:14:05;;;;;;;;;;;1.40;99.90;;;;;;5072954;28;20301;-72
2023/01/19 03:16:36;;;;;;;;;;;1.40;99.90;;;;;;5091089;28;19912;-72
2023/01/19 03:19:05;;;;;;;;;;;1.30;99.90;;;;;;5079010;28;20450;-72
2023/01/19 03:21:33;;;;;;;;;;;1.10;99.90;;;;;;5079247;28;19927;-72
2023/01/19 03:24:01;;;;;;;;;;;1.30;99.90;;;;;;5090419;28;19990;-73
2023/01/19 03:26:29;;;;;;;;;;;1.30;99.90;;;;;;5091127;28;19969;-73
2023/01/19 03:28:55;;;;;;;;;;;1.20;99.90;;;;;;5090226;28;20353;-73
2023/01/19 03:31:23;;;;;;;;;;;1.20;99.90;;;;;;5085495;28;19915;-73
2023/01/19 03:33:57;;;;;;;;;;;1.30;99.90;;;;;;5087950;28;19919;-73
2023/01/19 03:36:25;;;;;;;;;;;1.30;99.90;;;;;;5090704;28;19910;-73
2023/01/19 03:38:51;;;;;;;;;;;1.30;99.90;;;;;;5089438;28;19957;-73
2023/01/19 03:41:18;;;;;;;;;;;1.30;99.90;;;;;;5090133;28;19904;-73
2023/01/19 03:43:45;;;;;;;;;;;1.40;99.90;;;;;;5088477;28;19912;-73
2023/01/19 03:46:11;;;;;;;;;;;1.40;99.90;;;;;;5090190;28;19904;-73
2023/01/19 03:48:37;;;;;;;;;;;1.40;99.90;;;;;;5084484;28;19922;-72
2023/01/19 03:51:04;;;;;;;;;;;1.40;99.90;;;;;;5088059;28;20292;-73
2023/01/19 03:53:29;;;;;;;;;;;1.50;99.90;;;;;;5082042;28;19912;-72
2023/01/19 03:55:54;;;;;;;;;;;1.50;99.90;;;;;;5091949;28;19915;-72
2023/01/19 03:58:21;;;;;;;;;;;1.50;99.90;;;;;;5083750;28;19904;-73
2023/01/19 04:00:46;;;;;;;;;;;1.50;99.90;;;;;;5088791;28;19962;-72
2023/01/19 04:03:13;;;;;;;;;;;1.60;99.90;;;;;;5075636;28;19931;-72
2023/01/19 04:05:39;;;;;;;;;;;1.60;99.90;;;;;;5079110;28;19908;-72
2023/01/19 04:08:05;;;;;;;;;;;1.60;99.90;;;;;;5081407;28;20545;-72
2023/01/19 04:10:30;;;;;;;;;;;1.60;99.90;;;;;;5068797;28;20440;-72
2023/01/19 04:12:57;;;;;;;;;;;1.50;99.90;;;;;;5070756;28;20008;-72
2023/01/19 04:15:23;;;;;;;;;;;1.60;99.90;;;;;;5079363;28;19915;-72
2023/01/19 04:17:48;;;;;;;;;;;1.60;99.90;;;;;;5071835;28;19904;-71
2023/01/19 04:20:14;;;;;;;;;;;1.60;99.90;;;;;;5081369;28;19931;-72
2023/01/19 04:22:39;;;;;;;;;;;1.60;99.90;;;;;;5090091;28;19911;-71
2023/01/19 04:25:06;;;;;;;;;;;1.50;99.90;;;;;;5077931;28;20289;-71
2023/01/19 04:27:31;;;;;;;;;;;1.60;99.90;;;;;;5085808;28;19916;-72
2023/01/19 04:29:58;;;;;;;;;;;1.60;99.90;;;;;;5089230;28;19922;-72
2023/01/19 04:32:24;;;;;;;;;;;1.60;99.90;;;;;;5086884;28;19958;-72
2023/01/19 04:34:49;;;;;;;;;;;1.60;99.90;;;;;;5083655;28;19974;-72
2023/01/19 04:37:15;;;;;;;;;;;1.50;99.90;;;;;;5089799;28;19908;-72
2023/01/19 04:39:40;;;;;;;;;;;1.70;99.90;;;;;;5084963;28;19904;-72
2023/01/19 04:42:06;;;;;;;;;;;1.60;99.90;;;;;;5088268;28;19922;-72
2023/01/19 04:44:31;;;;;;;;;;;1.70;99.90;;;;;;5090031;28;20376;-71
2023/01/19 04:46:57;;;;;;;;;;;1.40;99.90;;;;;;5082675;28;19919;-72
2023/01/19 04:49:23;;;;;;;;;;;1.70;99.90;;;;;;5086775;28;19908;-72
2023/01/19 04:51:48;;;;;;;;;;;1.70;99.90;;;;;;5090256;28;19903;-71
2023/01/19 04:54:13;;;;;;;;;;;1.60;99.90;;;;;;5087626;28;20288;-72
2023/01/19 04:56:42;;;;;;;;;;;1.50;99.90;;;;;;5088990;28;19908;-72
2023/01/19 04:59:07;;;;;;;;;;;1.70;99.90;;;;;;5078937;28;19913;-72
2023/01/19 05:01:32;;;;;;;;;;;1.70;99.90;;;;;;5076778;28;19908;-71
2023/01/19 05:03:58;;;;;;;;;;;1.70;99.90;;;;;;5080912;28;19959;-71
2023/01/19 05:06:24;;;;;;;;;;;1.70;99.90;;;;;;5085905;28;19919;-71
2023/01/19 05:08:49;;;;;;;;;;;1.80;99.90;;;;;;5089243;28;19912;-71
2023/01/19 05:11:15;;;;;;;;;;;1.80;99.90;;;;;;5082685;28;20035;-71
2023/01/19 05:13:40;;;;;;;;;;;1.80;99.90;;;;;;5078739;28;19912;-71
2023/01/19 05:16:06;;;;;;;;;;;1.80;99.90;;;;;;5075033;28;20323;-71
2023/01/19 05:18:35;;;;;;;;;;;1.70;99.90;;;;;;5070652;28;20315;-71
2023/01/19 05:21:03;;;;;;;;;;;1.70;99.90;;;;;;5070792;28;20274;-71
2023/01/19 05:23:30;;;;;;;;;;;1.80;99.90;;;;;;5070813;28;19908;-71
2023/01/19 05:25:56;;;;;;;;;;;1.70;99.90;;;;;;5073244;28;20011;-71
2023/01/19 05:28:21;;;;;;;;;;;1.60;99.90;;;;;;5080993;28;20352;-71
2023/01/19 05:30:50;;;;;;;;;;;1.50;99.90;;;;;;5079313;28;19911;-73
2023/01/19 05:33:15;;;;;;;;;;;1.60;99.90;;;;;;5077799;28;19946;-74
2023/01/19 05:35:40;;;;;;;;;;;1.70;99.90;;;;;;5083396;28;19909;-74
2023/01/19 05:38:06;;;;;;;;;;;1.70;99.90;;;;;;5077330;28;19920;-74
2023/01/19 05:40:32;;;;;;;;;;;1.70;99.90;;;;;;5069310;28;19904;-74
2023/01/19 05:43:00;;;;;;;;;;;1.90;99.90;;;;;;5070893;28;19912;-74
2023/01/19 05:45:27;;;;;;;;;;;1.90;99.90;;;;;;5085703;28;19908;-74
2023/01/19 05:47:53;;;;;;;;;;;1.80;99.90;;;;;;5071672;28;19995;-74
2023/01/19 05:50:19;;;;;;;;;;;1.90;99.90;;;;;;5073306;28;20441;-74
2023/01/19 05:52:44;;;;;;;;;;;2.00;99.90;;;;;;5070285;28;20353;-74
2023/01/19 05:55:10;;;;;;;;;;;1.80;99.90;;;;;;5072068;28;20276;-71
2023/01/19 05:57:35;;;;;;;;;;;1.80;99.90;;;;;;5090648;28;19934;-71
2023/01/19 06:00:02;;;;;;;;;;;1.80;99.90;;;;;;5072166;28;20401;-71
2023/01/19 06:02:28;;;;;;;;;;;1.80;99.90;;;;;;5079562;28;20292;-71
2023/01/19 06:04:54;;;;;;;;;;;1.90;99.90;;;;;;5077321;28;19908;-71
2023/01/19 06:07:20;;;;;;;;;;;1.80;99.90;;;;;;5087133;28;20388;-71
2023/01/19 06:09:45;;;;;;;;;;;1.90;99.90;;;;;;5085054;28;19908;-71
2023/01/19 06:12:11;;;;;;;;;;;0.40;99.90;;;;;;5083286;28;19908;-71
2023/01/19 06:14:36;;;;;;;;;;;1.80;99.90;;;;;;5081873;28;19963;-71
2023/01/19 06:17:02;;;;;;;;;;;1.90;99.90;;;;;;5084394;28;19972;-71
2023/01/19 06:19:28;;;;;;;;;;;1.90;99.90;;;;;;5084495;28;19916;-72
2023/01/19 06:21:53;;;;;;;;;;;1.90;99.90;;;;;;5080789;28;19908;-71
2023/01/19 06:24:19;;;;;;;;;;;1.90;99.90;;;;;;5088216;28;19908;-71
2023/01/19 06:26:44;;;;;;;;;;;2.00;99.90;;;;;;5092291;28;19998;-71
2023/01/19 06:29:11;;;;;;;;;;;2.00;99.90;;;;;;5090612;28;19924;-71
2023/01/19 06:31:36;;;;;;;;;;;2.10;99.90;;;;;;5091863;28;20457;-71
2023/01/19 06:34:02;;;;;;;;;;;2.10;99.90;;;;;;5089739;28;20007;-71
2023/01/19 06:36:28;;;;;;;;;;;2.30;99.90;;;;;;5099094;28;19961;-71
2023/01/19 06:38:53;;;;;;;;;;;2.30;99.90;;;;;;5086439;28;19998;-71
2023/01/19 06:41:18;;;;;;;;;;;2.30;99.90;;;;;;5083077;28;19935;-71
2023/01/19 06:43:44;;;;;;;;;;;2.50;99.90;;;;;;5088541;28;19912;-71
2023/01/19 06:46:09;;;;;;;;;;;2.40;99.90;;;;;;5075716;28;19934;-71
2023/01/19 06:48:35;;;;;;;;;;;2.40;99.90;;;;;;5078221;28;19908;-71
2023/01/19 06:51:00;;;;;;;;;;;2.50;99.90;;;;;;5076413;28;19987;-71
2023/01/19 06:53:27;;;;;;;;;;;2.40;99.90;;;;;;5079366;28;19974;-71
2023/01/19 06:55:52;;;;;;;;;;;2.50;99.90;;;;;;5075721;28;19986;-71
2023/01/19 06:58:18;;;;;;;;;;;2.20;99.90;;;;;;5104154;28;20335;-71
2023/01/19 07:00:43;;;;;;;;;;;2.20;99.90;;;;;;5092423;28;19961;-71
2023/01/19 07:03:16;;;;;;;;;;;2.20;99.90;;;;;;5090834;28;20387;-71
2023/01/19 07:05:42;;;;;;;;;;;2.10;99.90;;;;;;5091757;28;19908;-71
2023/01/19 07:08:07;;;;;;;;;;;2.20;99.90;;;;;;5091303;28;19996;-70
2023/01/19 07:10:33;;;;;;;;;;;2.20;99.90;;;;;;5082251;28;19905;-70
2023/01/19 07:12:58;;;;;;;;;;;2.20;99.90;;;;;;5076089;28;19915;-71
2023/01/19 07:15:24;;;;;;;;;;;2.30;99.90;;;;;;5091958;28;20370;-71
2023/01/19 07:17:49;;;;;;;;;;;2.30;99.90;;;;;;5092743;28;19911;-70
2023/01/19 07:20:16;;;;;;;;;;;2.30;99.90;;;;;;5100545;28;19928;-70
2023/01/19 07:22:45;;;;;;;;;;;0.40;99.90;;;;;;5080018;28;20376;-70
2023/01/19 07:25:11;;;;;;;;;;;2.30;99.90;;;;;;5083878;28;20340;-70
2023/01/19 07:27:36;;;;;;;;;;;3.40;99.90;;;;;;5082467;28;19930;-70
2023/01/19 07:30:03;;;;;;;;;;;2.30;99.90;;;;;;5085238;28;19908;-71
2023/01/19 07:32:29;;;;;;;;;;;2.30;99.90;;;;;;5080311;28;19910;-71
2023/01/19 07:34:54;;;;;;;;;;;2.30;99.90;;;;;;5083081;28;19911;-72
2023/01/19 07:37:20;;;;;;;;;;;2.30;99.90;;;;;;5081800;28;19915;-71
2023/01/19 07:39:46;;;;;;;;;;;2.20;99.90;;;;;;5086516;28;19908;-72
2023/01/19 07:42:11;;;;;;;;;;;2.30;99.90;;;;;;5080738;28;19938;-71
2023/01/19 07:44:37;;;;;;;;;;;2.20;99.90;;;;;;5082571;28;20407;-71
2023/01/19 07:47:02;;;;;;;;;;;2.20;99.90;;;;;;5081041;28;20395;-71
2023/01/19 07:49:28;;;;;;;;;;;2.30;99.90;;;;;;5081260;28;19908;-71
2023/01/19 07:51:55;;;;;;;;;;;2.20;99.90;;;;;;5083979;28;19916;-71
2023/01/19 07:54:20;;;;;;;;;;;2.20;99.90;;;;;;5081384;28;19939;-71
2023/01/19 07:56:46;;;;;;;;;;;2.20;99.90;;;;;;5080252;28;20350;-71
2023/01/19 07:59:11;;;;;;;;;;;2.10;99.90;;;;;;5081597;28;19904;-71
2023/01/19 08:01:37;;;;;;;;;;;2.20;99.90;;;;;;5080361;28;19915;-71
2023/01/19 08:04:03;;;;;;;;;;;3.40;99.90;;;;;;5082057;28;19911;-71
2023/01/19 08:06:38;;;;;;;;;;;2.20;99.90;;;;;;5084735;28;19928;-71
2023/01/19 08:09:04;;;;;;;;;;;2.20;99.90;;;;;;5077226;28;19904;-71
2023/01/19 08:11:30;;;;;;;;;;;2.20;99.90;;;;;;5067918;28;19974;-71
2023/01/19 08:13:56;;;;;;;;;;;2.20;99.90;;;;;;5070847;28;19924;-71
2023/01/19 08:16:21;;;;;;;;;;;2.20;99.90;;;;;;5069504;28;19904;-71
2023/01/19 08:18:47;;;;;;;;;;;2.20;99.90;;;;;;5081913;28;20373;-71
2023/01/19 08:21:12;;;;;;;;;;;2.10;99.90;;;;;;5086299;28;19904;-71
2023/01/19 08:23:37;;;;;;;;;;;2.20;99.90;;;;;;5080822;28;19954;-71
2023/01/19 08:26:38;;;;;;;;;;;2.20;99.90;;;;;;5089245;28;19904;-71
2023/01/19 08:29:04;;;;;;;;;;;2.20;99.90;;;;;;5007926;28;20354;-71
2023/01/19 08:31:29;;;;;;;;;;;2.20;99.90;;;;;;5016879;28;20004;-71
2023/01/19 08:33:55;;;;;;;;;;;2.30;99.90;;;;;;5011486;28;20116;-71
2023/01/19 08:36:21;;;;;;;;;;;2.30;99.90;;;;;;5017198;28;20326;-71
2023/01/19 08:38:47;;;;;;;;;;;2.10;99.90;;;;;;5019809;28;19933;-71
2023/01/19 08:41:13;;;;;;;;;;;2.40;99.90;;;;;;5007760;28;19905;-71
2023/01/19 08:43:38;;;;;;;;;;;2.50;99.90;;;;;;5016379;28;19917;-71
2023/01/19 08:46:04;;;;;;;;;;;2.50;99.90;;;;;;5004947;28;20344;-71
2023/01/19 08:48:30;;;;;;;;;;;2.50;99.90;;;;;;5012801;28;19905;-72
2023/01/19 08:50:55;;;;;;;;;;;2.40;99.90;;;;;;4998132;28;19964;-71
2023/01/19 08:53:22;;;;;;;;;;;2.40;99.90;;;;;;5007860;28;19913;-72
2023/01/19 08:55:48;;;;;;;;;;;2.30;99.90;;;;;;5009159;28;19975;-72
2023/01/19 08:58:14;;;;;;;;;;;2.10;99.90;;;;;;5008693;28;20524;-72
2023/01/19 09:00:39;;;;;;;;;;;2.20;99.90;;;;;;5000829;28;19996;-72
2023/01/19 09:03:06;;;;;;;;;;;2.10;99.90;;;;;;5041566;28;20353;-72
2023/01/19 09:05:37;;;;;;;;;;;2.20;99.90;;;;;;5076517;28;19908;-71
2023/01/19 09:08:04;;;;;;;;;;;2.20;99.90;;;;;;5079937;28;19911;-71
2023/01/19 09:10:34;;;;;;;;;;;2.10;99.90;;;;;;5075266;28;19934;-71
2023/01/19 09:13:03;;;;;;;;;;;2.20;99.90;;;;;;5068757;28;19954;-71
2023/01/19 09:15:31;;;;;;;;;;;2.20;99.90;;;;;;5070124;28;19936;-71
2023/01/19 09:17:56;;;;;;;;;;;2.20;99.90;;;;;;5070505;28;19904;-71
2023/01/19 09:20:22;;;;;;;;;;;2.30;99.90;;;;;;5068512;28;20372;-71
2023/01/19 09:22:47;;;;;;;;;;;2.30;99.90;;;;;;5068282;28;19912;-71
2023/01/19 09:25:13;;;;;;;;;;;2.40;99.90;;;;;;5069884;28;20361;-71
2023/01/19 09:27:38;;;;;;;;;;;2.50;99.90;;;;;;5070160;28;19905;-72
2023/01/19 09:30:04;;;;;;;;;;;2.60;99.90;;;;;;5070808;28;20094;-72
2023/01/19 09:32:30;;;;;;;;;;;2.50;99.90;;;;;;5067895;28;19909;-72
2023/01/19 09:34:56;;;;;;;;;;;2.60;99.90;;;;;;5070670;28;19930;-71
2023/01/19 09:37:21;;;;;;;;;;;2.50;99.90;;;;;;5070338;28;19944;-71
2023/01/19 09:39:47;;;;;;;;;;;2.60;99.90;;;;;;5070587;28;19908;-72
2023/01/19 09:42:18;;;;;;;;;;;2.60;99.90;;;;;;5067291;28;19919;-72
2023/01/19 09:44:44;;;;;;;;;;;2.70;99.90;;;;;;5069027;28;20357;-72
2023/01/19 09:47:14;;;;;;;;;;;2.70;99.90;;;;;;5069832;28;19905;-72
2023/01/19 09:49:42;;;;;;;;;;;2.70;99.90;;;;;;5069830;28;19950;-73
2023/01/19 09:52:13;;;;;;;;;;;2.80;99.90;;;;;;5069022;28;19912;-72
2023/01/19 09:54:45;;;;;;;;;;;2.90;99.90;;;;;;5082295;28;20366;-72
2023/01/19 09:57:11;;;;;;;;;;;3.20;99.90;;;;;;5075868;28;19970;-71
2023/01/19 09:59:37;;;;;;;;;;;3.30;99.90;;;;;;5098112;28;20027;-72
2023/01/19 10:02:08;;;;;;;;;;;3.60;99.90;;;;;;5090417;28;19908;-70
2023/01/19 10:04:37;;;;;;;;;;;3.80;99.90;;;;;;5096975;28;19903;-70
2023/01/19 10:07:14;;;;;;;;;;;3.90;99.90;;;;;;5084342;28;20361;-71
2023/01/19 10:09:49;;;;;;;;;;;4.00;99.90;;;;;;5084757;28;19912;-71
2023/01/19 10:12:15;;;;;;;;;;;4.20;99.90;;;;;;5093234;28;19908;-71
2023/01/19 10:14:45;;;;;;;;;;;4.20;99.90;;;;;;5105978;28;19969;-70
2023/01/19 10:17:13;;;;;;;;;;;4.10;99.90;;;;;;5091900;28;20041;-71
2023/01/19 10:19:40;;;;;;;;;;;4.30;99.90;;;;;;5091301;28;19904;-71
2023/01/19 10:22:25;;;;;;;;;;;5.10;99.90;;;;;;5078365;28;19904;-70
2023/01/19 10:25:04;;;;;;;;;;;4.10;99.90;;;;;;5081675;28;19912;-72
2023/01/19 10:27:32;;;;;;;;;;;4.10;99.90;;;;;;5091694;28;19957;-70
2023/01/19 10:29:59;;;;;;;;;;;3.90;99.90;;;;;;5104911;28;20376;-71
2023/01/19 10:32:37;;;;;;;;;;;4.00;99.90;;;;;;5100512;28;19915;-70
2023/01/19 10:35:23;;;;;;;;;;;4.00;99.90;;;;;;5100783;28;19939;-71
2023/01/19 10:37:50;;;;;;;;;;;3.90;99.90;;;;;;5099330;28;20264;-71
2023/01/19 10:40:38;;;;;;;;;;;3.90;99.90;;;;;;5091429;28;20273;-70
2023/01/19 10:43:22;;;;;;;;;;;3.80;99.90;;;;;;5098584;28;20029;-72
2023/01/19 10:45:49;;;;;;;;;;;3.70;99.90;;;;;;5088078;28;20031;-72
2023/01/19 10:48:14;;;;;;;;;;;3.70;99.90;;;;;;5094715;28;19904;-73
2023/01/19 10:50:40;;;;;;;;;;;3.70;99.90;;;;;;5101206;28;19908;-72
2023/01/19 10:53:16;;;;;;;;;;;3.70;99.90;;;;;;5084782;28;19950;-72
2023/01/19 10:55:42;;;;;;;;;;;3.70;99.90;;;;;;5099203;28;19904;-72
2023/01/19 10:58:25;;;;;;;;;;;3.60;99.90;;;;;;5085992;28;19912;-73
2023/01/19 11:00:51;;;;;;;;;;;3.60;99.90;;;;;;5080312;28;19908;-72
2023/01/19 11:03:24;;;;;;;;;;;3.60;99.90;;;;;;5083866;28;19911;-72
2023/01/19 11:05:49;;;;;;;;;;;3.60;99.90;;;;;;5105227;28;19912;-72
2023/01/19 11:08:35;;;;;;;;;;;3.60;99.90;;;;;;5090371;28;19919;-72
2023/01/19 11:11:03;;;;;;;;;;;4.10;99.90;;;;;;5094401;28;20010;-72
2023/01/19 11:13:29;;;;;;;;;;;3.50;99.90;;;;;;5097821;28;19908;-71
2023/01/19 11:16:02;;;;;;;;;;;3.60;99.90;;;;;;5089758;28;20328;-72
2023/01/19 11:18:29;;;;;;;;;;;3.70;99.90;;;;;;5078352;28;19909;-71
2023/01/19 11:21:01;;;;;;;;;;;3.60;99.90;;;;;;5077810;28;20020;-71
2023/01/19 11:23:33;;;;;;;;;;;3.70;99.90;;;;;;5078026;28;19926;-71
2023/01/19 11:26:00;;;;;;;;;;;3.70;99.90;;;;;;5080792;28;19908;-71
2023/01/19 11:28:28;;;;;;;;;;;3.70;99.90;;;;;;5080718;28;19916;-69
2023/01/19 11:31:00;;;;;;;;;;;3.80;99.90;;;;;;5074977;28;20005;-71
2023/01/19 11:33:32;;;;;;;;;;;3.80;99.90;;;;;;5079424;28;19914;-71
2023/01/19 11:36:02;;;;;;;;;;;3.70;99.90;;;;;;5080830;28;19919;-71
2023/01/19 11:38:27;;;;;;;;;;;3.80;99.90;;;;;;5080064;28;20038;-71
2023/01/19 11:40:54;;;;;;;;;;;4.40;99.90;;;;;;5073584;28;20526;-71
2023/01/19 11:43:21;;;;;;;;;;;3.80;99.90;;;;;;5078053;28;19927;-72
2023/01/19 11:45:46;;;;;;;;;;;3.70;99.90;;;;;;5077651;28;20361;-71
2023/01/19 11:48:18;;;;;;;;;;;3.90;99.90;;;;;;5102872;28;19908;-71
2023/01/19 11:50:44;;;;;;;;;;;3.80;99.90;;;;;;5079901;28;20273;-71
2023/01/19 11:53:27;;;;;;;;;;;3.90;99.90;;;;;;5074033;28;19919;-71
2023/01/19 11:55:55;;;;;;;;;;;3.80;99.90;;;;;;5073088;28;19912;-71
2023/01/19 11:58:20;;;;;;;;;;;3.80;99.90;;;;;;5074981;28;19989;-71
2023/01/19 12:00:52;;;;;;;;;;;3.80;99.90;;;;;;5073035;28;19950;-71
2023/01/19 12:03:31;;;;;;;;;;;3.90;99.90;;;;;;5075042;28;19912;-71
2023/01/19 12:06:04;;;;;;;;;;;3.70;99.90;;;;;;5089580;28;19919;-71
2023/01/19 12:08:33;;;;;;;;;;;3.90;99.90;;;;;;5087418;28;20343;-71
2023/01/19 12:11:00;;;;;;;;;;;3.80;99.90;;;;;;5075938;28;19943;-71
2023/01/19 12:13:26;;;;;;;;;;;4.40;99.90;;;;;;5090254;28;19915;-71
2023/01/19 12:15:57;;;;;;;;;;;3.80;99.90;;;;;;5089921;28;19904;-71
2023/01/19 12:18:26;;;;;;;;;;;3.90;99.90;;;;;;5090424;28;20364;-70
2023/01/19 12:20:53;;;;;;;;;;;3.70;99.90;;;;;;5089303;28;20345;-70
2023/01/19 12:23:34;;;;;;;;;;;4.00;99.90;;;;;;5090295;28;19904;-70
2023/01/19 12:26:02;;;;;;;;;;;4.00;99.90;;;;;;5078499;28;19908;-70
2023/01/19 12:28:29;;;;;;;;;;;4.00;99.90;;;;;;5089502;28;20677;-70
2023/01/19 12:30:55;;;;;;;;;;;4.10;99.90;;;;;;5089528;28;19908;-70
2023/01/19 12:33:28;;;;;;;;;;;4.00;99.90;;;;;;5091124;28;19935;-70
2023/01/19 12:35:59;;;;;;;;;;;4.10;99.90;;;;;;5085707;28;19904;-70
2023/01/19 12:38:44;;;;;;;;;;;4.20;99.90;;;;;;5089166;28;19904;-70
2023/01/19 12:41:16;;;;;;;;;;;4.10;99.90;;;;;;5094724;28;19907;-70
2023/01/19 12:43:42;;;;;;;;;;;4.10;99.90;;;;;;5089708;28;19956;-70
2023/01/19 12:46:22;;;;;;;;;;;4.10;99.90;;;;;;5074846;28;19955;-70
2023/01/19 12:48:48;;;;;;;;;;;4.20;99.90;;;;;;5084602;28;19920;-70
2023/01/19 12:51:23;;;;;;;;;;;4.40;99.90;;;;;;5083043;28;20349;-70
2023/01/19 12:53:53;;;;;;;;;;;5.40;99.90;;;;;;5076083;28;19915;-70
2023/01/19 12:56:25;;;;;;;;;;;4.20;99.90;;;;;;5090263;28;20459;-70
2023/01/19 12:58:50;;;;;;;;;;;4.10;99.90;;;;;;5094045;28;19912;-70
2023/01/19 13:01:19;;;;;;;;;;;4.40;99.90;;;;;;5088810;28;19904;-70
2023/01/19 13:03:45;;;;;;;;;;;4.60;99.90;;;;;;5086150;28;19911;-70
2023/01/19 13:06:10;;;;;;;;;;;4.60;99.90;;;;;;5077426;28;19913;-70
2023/01/19 13:08:55;;;;;;;;;;;4.90;99.90;;;;;;5090370;28;20452;-70
2023/01/19 13:11:20;;;;;;;;;;;5.10;99.90;;;;;;5082967;28;19911;-70
2023/01/19 13:13:49;;;;;;;;;;;5.20;99.90;;;;;;5091303;28;19912;-70
2023/01/19 13:16:17;;;;;;;;;;;5.30;99.90;;;;;;5088301;28;19908;-70
2023/01/19 13:18:45;;;;;;;;;;;5.60;99.90;;;;;;5079676;28;19987;-71
2023/01/19 13:21:10;;;;;;;;;;;5.80;99.90;;;;;;5101559;28;20371;-70
2023/01/19 13:23:36;;;;;;;;;;;5.50;99.90;;;;;;5079775;28;19909;-71
2023/01/19 13:26:03;;;;;;;;;;;5.30;99.90;;;;;;5074833;28;19962;-71
2023/01/19 13:28:31;;;;;;;;;;;4.90;99.90;;;;;;5075365;28;19904;-70
2023/01/19 13:30:57;;;;;;;;;;;5.00;99.90;;;;;;5097731;28;20012;-70
2023/01/19 13:33:25;;;;;;;;;;;4.70;99.90;;;;;;5086077;28;20015;-71
2023/01/19 13:35:55;;;;;;;;;;;4.70;99.90;;;;;;5093244;28;20033;-71
2023/01/19 13:38:21;;;;;;;;;;;4.60;99.90;;;;;;5085594;28;19912;-71
2023/01/19 13:40:47;;;;;;;;;;;4.40;99.90;;;;;;5090145;28;20326;-71
2023/01/19 13:43:23;;;;;;;;;;;4.50;99.90;;;;;;5093049;28;20004;-71
2023/01/19 13:45:49;;;;;;;;;;;4.40;99.90;;;;;;5093288;28;19904;-70
2023/01/19 13:48:16;;;;;;;;;;;4.40;99.90;;;;;;5091718;28;20340;-71
2023/01/19 13:50:54;;;;;;;;;;;4.20;99.90;;;;;;5090169;28;20001;-70
2023/01/19 13:53:20;;;;;;;;;;;4.40;99.90;;;;;;5090217;28;19916;-70
2023/01/19 13:55:46;;;;;;;;;;;4.40;99.90;;;;;;5099490;28;19987;-70
2023/01/19 13:58:22;;;;;;;;;;;4.30;99.90;;;;;;5096255;28;19915;-70
2023/01/19 14:00:48;;;;;;;;;;;4.50;99.90;;;;;;5099159;28;19918;-71
2023/01/19 14:03:14;;;;;;;;;;;4.30;99.90;;;;;;5096709;28;19908;-70
2023/01/19 14:05:41;;;;;;;;;;;4.30;99.90;;;;;;5089095;28;20397;-71
2023/01/19 14:08:06;;;;;;;;;;;4.30;99.90;;;;;;5080396;28;19904;-71
2023/01/19 14:10:33;;;;;;;;;;;4.30;99.90;;;;;;5079051;28;20367;-70
2023/01/19 14:12:59;;;;;;;;;;;4.30;99.90;;;;;;5075271;28;19998;-70
2023/01/19 14:15:24;;;;;;;;;;;4.20;99.90;;;;;;5084106;28;19991;-71
2023/01/19 14:18:06;;;;;;;;;;;4.40;99.90;;;;;;5092304;28;19962;-71
2023/01/19 14:20:35;;;;;;;;;;;4.30;99.90;;;;;;5100180;28;19914;-70
2023/01/19 14:23:01;;;;;;;;;;;4.20;99.90;;;;;;5079363;28;19905;-70
2023/01/19 14:25:27;;;;;;;;;;;4.20;99.90;;;;;;5083769;28;19911;-71
2023/01/19 14:28:11;;;;;;;;;;;4.10;99.90;;;;;;5079667;28;20042;-70
2023/01/19 14:30:36;;;;;;;;;;;4.00;99.90;;;;;;5078865;28;19916;-70
2023/01/19 14:33:02;;;;;;;;;;;4.00;99.90;;;;;;5081512;28;19908;-71
2023/01/19 14:35:28;;;;;;;;;;;4.00;99.90;;;;;;5089094;28;20387;-70
2023/01/19 14:37:54;;;;;;;;;;;3.90;99.90;;;;;;5083360;28;19950;-71
2023/01/19 14:40:21;;;;;;;;;;;3.90;99.90;;;;;;5093691;28;19908;-70
2023/01/19 14:42:49;;;;;;;;;;;3.90;99.90;;;;;;5084992;28;19924;-70
2023/01/19 14:45:17;;;;;;;;;;;3.80;99.90;;;;;;5093842;28;19904;-70
2023/01/19 14:47:43;;;;;;;;;;;3.80;99.90;;;;;;5094802;28;19966;-71